sensor_id;sensor_type;location;lat;lon;timestamp;pressure;altitude;pressure_sealevel;temperature;humidity
43217;BME280;71549;42.686;23.300;2023-10-13T00:00:41;95194.97;;;25.39;30.27
43217;BME280;71549;42.686;23.300;2023-10-13T00:02:42;95218.03;;;25.49;30.57
43217;BME280;71549;42.686;23.300;2023-10-13T00:04:43;95214.09;;;25.46;30.37
43217;BME280;71549;42.686;23.300;2023-10-13T00:06:46;95207.09;;;25.45;30.44
43217;BME280;71549;42.686;23.300;2023-10-13T00:08:46;95185.81;;;25.28;30.46
43217;BME280;71549;42.686;23.300;2023-10-13T00:10:47;95212.09;;;25.43;30.35
43217;BME280;71549;42.686;23.300;2023-10-13T00:12:48;95183.00;;;25.24;30.36
43217;BME280;71549;42.686;23.300;2023-10-13T00:14:52;95203.19;;;25.43;30.35
43217;BME280;71549;42.686;23.300;2023-10-13T00:16:54;95204.75;;;25.44;30.24
43217;BME280;71549;42.686;23.300;2023-10-13T00:19:13;95187.31;;;25.25;30.29
43217;BME280;71549;42.686;23.300;2023-10-13T00:21:14;95211.31;;;25.43;30.16
43217;BME280;71549;42.686;23.300;2023-10-13T00:23:35;95208.59;;;25.43;30.13
43217;BME280;71549;42.686;23.300;2023-10-13T00:25:35;95201.53;;;25.38;30.20
43217;BME280;71549;42.686;23.300;2023-10-13T00:27:50;95203.19;;;25.43;30.76
43217;BME280;71549;42.686;23.300;2023-10-13T00:29:52;95190.94;;;25.33;30.67
43217;BME280;71549;42.686;23.300;2023-10-13T00:32:13;95197.50;;;25.32;30.57
43217;BME280;71549;42.686;23.300;2023-10-13T00:34:17;95210.78;;;25.37;30.59
43217;BME280;71549;42.686;23.300;2023-10-13T00:36:27;95216.56;;;25.36;30.45
43217;BME280;71549;42.686;23.300;2023-10-13T00:38:28;95213.06;;;25.35;30.48
43217;BME280;71549;42.686;23.300;2023-10-13T00:40:28;95197.00;;;25.26;30.50
43217;BME280;71549;42.686;23.300;2023-10-13T00:42:31;95210.28;;;25.32;30.50
43217;BME280;71549;42.686;23.300;2023-10-13T00:44:51;95218.03;;;25.33;30.48
43217;BME280;71549;42.686;23.300;2023-10-13T00:46:55;95183.50;;;25.14;30.34
43217;BME280;71549;42.686;23.300;2023-10-13T00:48:57;95202.31;;;25.23;30.44
43217;BME280;71549;42.686;23.300;2023-10-13T00:51:01;95216.03;;;25.30;30.20
43217;BME280;71549;42.686;23.300;2023-10-13T00:53:08;95215.59;;;25.28;30.42
43217;BME280;71549;42.686;23.300;2023-10-13T00:55:10;95214.47;;;25.29;30.47
43217;BME280;71549;42.686;23.300;2023-10-13T00:57:15;95207.47;;;25.28;30.69
43217;BME280;71549;42.686;23.300;2023-10-13T00:59:30;95169.97;;;24.98;30.79
43217;BME280;71549;42.686;23.300;2023-10-13T01:01:42;95214.03;;;25.27;30.65
43217;BME280;71549;42.686;23.300;2023-10-13T01:03:48;95218.31;;;25.28;30.42
43217;BME280;71549;42.686;23.300;2023-10-13T01:05:49;95212.47;;;25.26;30.39
43217;BME280;71549;42.686;23.300;2023-10-13T01:07:54;95212.81;;;25.24;30.18
43217;BME280;71549;42.686;23.300;2023-10-13T01:09:55;95215.50;;;25.24;30.40
43217;BME280;71549;42.686;23.300;2023-10-13T01:11:56;95204.84;;;25.16;30.52
43217;BME280;71549;42.686;23.300;2023-10-13T01:13:56;95177.75;;;25.00;30.56
43217;BME280;71549;42.686;23.300;2023-10-13T01:15:57;95210.81;;;25.21;30.67
43217;BME280;71549;42.686;23.300;2023-10-13T01:18:10;95211.91;;;25.20;30.57
43217;BME280;71549;42.686;23.300;2023-10-13T01:20:14;95183.88;;;24.97;30.64
43217;BME280;71549;42.686;23.300;2023-10-13T01:22:25;95214.97;;;25.19;30.61
43217;BME280;71549;42.686;23.300;2023-10-13T01:24:29;95194.97;;;25.08;30.50
43217;BME280;71549;42.686;23.300;2023-10-13T01:26:31;95205.28;;;25.18;31.11
43217;BME280;71549;42.686;23.300;2023-10-13T01:28:36;95212.25;;;25.19;30.72
43217;BME280;71549;42.686;23.300;2023-10-13T01:30:45;95210.16;;;25.12;30.65
43217;BME280;71549;42.686;23.300;2023-10-13T01:32:50;95216.09;;;25.18;30.71
43217;BME280;71549;42.686;23.300;2023-10-13T01:34:52;95216.44;;;25.16;30.72
43217;BME280;71549;42.686;23.300;2023-10-13T01:36:56;94956.53;;;23.45;30.81
43217;BME280;71549;42.686;23.300;2023-10-13T01:38:56;95217.94;;;25.14;30.70
43217;BME280;71549;42.686;23.300;2023-10-13T01:41:05;95224.13;;;25.14;30.64
43217;BME280;71549;42.686;23.300;2023-10-13T01:43:06;95229.13;;;25.12;30.55
43217;BME280;71549;42.686;23.300;2023-10-13T01:45:10;95196.06;;;24.91;30.75
43217;BME280;71549;42.686;23.300;2023-10-13T01:47:14;95211.91;;;25.04;30.50
43217;BME280;71549;42.686;23.300;2023-10-13T01:49:16;95231.03;;;25.12;30.61
43217;BME280;71549;42.686;23.300;2023-10-13T01:51:17;95222.72;;;25.04;30.53
43217;BME280;71549;42.686;23.300;2023-10-13T01:53:18;95227.91;;;25.10;30.63
43217;BME280;71549;42.686;23.300;2023-10-13T01:55:19;95230.94;;;25.08;30.55
43217;BME280;71549;42.686;23.300;2023-10-13T01:57:20;95147.88;;;24.64;30.75
43217;BME280;71549;42.686;23.300;2023-10-13T01:59:24;95193.91;;;24.96;30.69
43217;BME280;71549;42.686;23.300;2023-10-13T02:01:33;95220.91;;;25.09;30.62
43217;BME280;71549;42.686;23.300;2023-10-13T02:03:35;95219.34;;;25.08;30.67
43217;BME280;71549;42.686;23.300;2023-10-13T02:05:45;95213.81;;;25.04;30.74
43217;BME280;71549;42.686;23.300;2023-10-13T02:07:48;95200.56;;;24.99;30.86
43217;BME280;71549;42.686;23.300;2023-10-13T02:09:48;95186.03;;;24.91;30.64
43217;BME280;71549;42.686;23.300;2023-10-13T02:11:49;95216.97;;;25.06;30.64
43217;BME280;71549;42.686;23.300;2023-10-13T02:13:54;95210.78;;;25.05;30.80
43217;BME280;71549;42.686;23.300;2023-10-13T02:15:57;95191.19;;;24.96;30.71
43217;BME280;71549;42.686;23.300;2023-10-13T02:17:58;95215.84;;;25.07;30.75
43217;BME280;71549;42.686;23.300;2023-10-13T02:20:01;95205.34;;;25.05;30.92
43217;BME280;71549;42.686;23.300;2023-10-13T02:22:08;95194.69;;;24.97;30.71
43217;BME280;71549;42.686;23.300;2023-10-13T02:24:10;95184.47;;;24.90;31.16
43217;BME280;71549;42.686;23.300;2023-10-13T02:26:18;95153.78;;;24.70;31.00
43217;BME280;71549;42.686;23.300;2023-10-13T02:28:30;95180.44;;;24.84;31.19
43217;BME280;71549;42.686;23.300;2023-10-13T02:30:42;95208.41;;;25.04;31.11
43217;BME280;71549;42.686;23.300;2023-10-13T02:32:44;95172.59;;;24.79;31.10
43217;BME280;71549;42.686;23.300;2023-10-13T02:34:46;95218.81;;;25.02;30.94
43217;BME280;71549;42.686;23.300;2023-10-13T02:36:47;95207.63;;;25.03;31.12
43217;BME280;71549;42.686;23.300;2023-10-13T02:38:49;95213.03;;;25.03;31.11
43217;BME280;71549;42.686;23.300;2023-10-13T02:40:51;95214.59;;;25.04;30.98
43217;BME280;71549;42.686;23.300;2023-10-13T02:42:52;95181.94;;;24.81;31.06
43217;BME280;71549;42.686;23.300;2023-10-13T02:44:53;95159.13;;;24.66;31.13
43217;BME280;71549;42.686;23.300;2023-10-13T02:46:56;95182.59;;;24.78;31.04
43217;BME280;71549;42.686;23.300;2023-10-13T02:48:56;95226.94;;;25.02;31.15
43217;BME280;71549;42.686;23.300;2023-10-13T02:51:03;95110.94;;;24.28;30.80
43217;BME280;71549;42.686;23.300;2023-10-13T02:53:07;95219.50;;;24.99;31.17
43217;BME280;71549;42.686;23.300;2023-10-13T02:55:12;95192.66;;;24.78;31.19
43217;BME280;71549;42.686;23.300;2023-10-13T02:57:17;95213.56;;;24.93;31.15
43217;BME280;71549;42.686;23.300;2023-10-13T02:59:18;95204.47;;;24.85;30.94
43217;BME280;71549;42.686;23.300;2023-10-13T03:01:35;95200.78;;;24.78;30.84
43217;BME280;71549;42.686;23.300;2023-10-13T03:03:35;95225.28;;;24.97;30.97
43217;BME280;71549;42.686;23.300;2023-10-13T03:05:36;95230.34;;;24.99;30.85
43217;BME280;71549;42.686;23.300;2023-10-13T03:07:42;95217.28;;;24.89;30.97
43217;BME280;71549;42.686;23.300;2023-10-13T03:09:43;95210.13;;;24.80;30.86
43217;BME280;71549;42.686;23.300;2023-10-13T03:11:51;95223.84;;;24.88;30.80
43217;BME280;71549;42.686;23.300;2023-10-13T03:13:53;95122.94;;;24.15;30.89
43217;BME280;71549;42.686;23.300;2023-10-13T03:15:54;95202.25;;;24.75;30.71
43217;BME280;71549;42.686;23.300;2023-10-13T03:18:15;95241.84;;;24.96;31.45
43217;BME280;71549;42.686;23.300;2023-10-13T03:20:18;95243.00;;;24.95;30.76
43217;BME280;71549;42.686;23.300;2023-10-13T03:22:39;95234.78;;;24.91;30.72
43217;BME280;71549;42.686;23.300;2023-10-13T03:24:41;95216.34;;;24.81;30.76
43217;BME280;71549;42.686;23.300;2023-10-13T03:26:46;95218.69;;;24.82;30.80
43217;BME280;71549;42.686;23.300;2023-10-13T03:28:52;95231.63;;;24.89;30.76
43217;BME280;71549;42.686;23.300;2023-10-13T03:30:54;95234.78;;;24.91;30.88
43217;BME280;71549;42.686;23.300;2023-10-13T03:32:54;95109.69;;;24.10;30.58
43217;BME280;71549;42.686;23.300;2023-10-13T03:34:56;95228.56;;;24.91;30.80
43217;BME280;71549;42.686;23.300;2023-10-13T03:37:13;95235.13;;;24.90;30.66
43217;BME280;71549;42.686;23.300;2023-10-13T03:39:40;95229.28;;;24.88;30.72
43217;BME280;71549;42.686;23.300;2023-10-13T03:41:44;95229.28;;;24.88;30.80
43217;BME280;71549;42.686;23.300;2023-10-13T03:43:45;95223.84;;;24.88;30.63
43217;BME280;71549;42.686;23.300;2023-10-13T03:45:51;95224.97;;;24.86;30.71
43217;BME280;71549;42.686;23.300;2023-10-13T03:48:00;95221.50;;;24.86;30.66
43217;BME280;71549;42.686;23.300;2023-10-13T03:50:09;95214.16;;;24.86;30.70
43217;BME280;71549;42.686;23.300;2023-10-13T03:52:15;95189.16;;;24.77;30.54
43217;BME280;71549;42.686;23.300;2023-10-13T03:54:22;95179.19;;;24.65;30.63
43217;BME280;71549;42.686;23.300;2023-10-13T03:56:26;95155.78;;;24.57;30.50
43217;BME280;71549;42.686;23.300;2023-10-13T03:58:27;95193.53;;;24.82;30.69
43217;BME280;71549;42.686;23.300;2023-10-13T04:00:30;95197.03;;;24.82;30.77
43217;BME280;71549;42.686;23.300;2023-10-13T04:02:31;95189.06;;;24.74;30.83
43217;BME280;71549;42.686;23.300;2023-10-13T04:04:32;95178.50;;;24.69;30.77
43217;BME280;71549;42.686;23.300;2023-10-13T04:06:54;95194.59;;;24.77;30.83
43217;BME280;71549;42.686;23.300;2023-10-13T04:09:17;95203.94;;;24.80;30.91
43217;BME280;71549;42.686;23.300;2023-10-13T04:11:30;95196.59;;;24.80;30.57
43217;BME280;71549;42.686;23.300;2023-10-13T04:13:49;95189.59;;;24.79;30.75
43217;BME280;71549;42.686;23.300;2023-10-13T04:16:18;95198.94;;;24.82;31.17
43217;BME280;71549;42.686;23.300;2023-10-13T04:18:22;95178.16;;;24.70;30.91
43217;BME280;71549;42.686;23.300;2023-10-13T04:20:53;95205.84;;;24.79;30.71
43217;BME280;71549;42.686;23.300;2023-10-13T04:23:04;95149.28;;;24.46;30.94
43217;BME280;71549;42.686;23.300;2023-10-13T04:25:21;95207.78;;;24.79;30.94
43217;BME280;71549;42.686;23.300;2023-10-13T04:27:40;95202.72;;;24.77;30.83
43217;BME280;71549;42.686;23.300;2023-10-13T04:29:54;95210.13;;;24.80;30.90
43217;BME280;71549;42.686;23.300;2023-10-13T04:32:11;95194.66;;;24.65;30.87
43217;BME280;71549;42.686;23.300;2023-10-13T04:34:15;95195.69;;;24.60;30.77
43217;BME280;71549;42.686;23.300;2023-10-13T04:36:27;95217.03;;;24.78;30.82
43217;BME280;71549;42.686;23.300;2023-10-13T04:38:28;95213.88;;;24.76;30.86
43217;BME280;71549;42.686;23.300;2023-10-13T04:40:40;95209.75;;;24.66;31.00
43217;BME280;71549;42.686;23.300;2023-10-13T04:42:58;95182.53;;;24.46;31.14
43217;BME280;71549;42.686;23.300;2023-10-13T04:45:07;95227.41;;;24.76;31.37
43217;BME280;71549;42.686;23.300;2023-10-13T04:47:28;95218.41;;;24.72;31.17
43217;BME280;71549;42.686;23.300;2023-10-13T04:49:39;95202.94;;;24.56;30.87
43217;BME280;71549;42.686;23.300;2023-10-13T04:51:43;95241.81;;;24.80;30.80
43217;BME280;71549;42.686;23.300;2023-10-13T04:53:58;95221.00;;;24.68;30.91
43217;BME280;71549;42.686;23.300;2023-10-13T04:56:04;95226.53;;;24.72;30.98
43217;BME280;71549;42.686;23.300;2023-10-13T04:58:23;95216.22;;;24.61;31.24
43217;BME280;71549;42.686;23.300;2023-10-13T05:00:33;95247.84;;;24.73;31.04
43217;BME280;71549;42.686;23.300;2023-10-13T05:03:04;95195.84;;;24.39;31.00
43217;BME280;71549;42.686;23.300;2023-10-13T05:05:24;95251.00;;;24.75;31.02
43217;BME280;71549;42.686;23.300;2023-10-13T05:07:24;95255.25;;;24.76;31.12
43217;BME280;71549;42.686;23.300;2023-10-13T05:09:43;95254.91;;;24.78;31.18
43217;BME280;71549;42.686;23.300;2023-10-13T05:12:22;95182.75;;;24.25;31.06
43217;BME280;71549;42.686;23.300;2023-10-13T05:14:41;95265.06;;;24.81;31.04
43217;BME280;71549;42.686;23.300;2023-10-13T05:17:00;95264.97;;;24.77;31.17
43217;BME280;71549;42.686;23.300;2023-10-13T05:19:19;95276.69;;;24.81;31.12
43217;BME280;71549;42.686;23.300;2023-10-13T05:21:38;95278.25;;;24.82;31.40
43217;BME280;71549;42.686;23.300;2023-10-13T05:23:57;95272.84;;;24.82;31.07
43217;BME280;71549;42.686;23.300;2023-10-13T05:26:16;95275.91;;;24.81;30.95
43217;BME280;71549;42.686;23.300;2023-10-13T05:28:35;95193.22;;;24.27;30.85
43217;BME280;71549;42.686;23.300;2023-10-13T05:30:53;95235.41;;;24.56;31.24
43217;BME280;71549;42.686;23.300;2023-10-13T05:33:12;95272.38;;;24.80;30.93
43217;BME280;71549;42.686;23.300;2023-10-13T05:35:31;95270.81;;;24.79;31.02
43217;BME280;71549;42.686;23.300;2023-10-13T05:37:51;95245.78;;;24.54;31.20
43217;BME280;71549;42.686;23.300;2023-10-13T05:40:10;95260.06;;;24.67;30.93
43217;BME280;71549;42.686;23.300;2023-10-13T05:42:29;95283.44;;;24.88;30.92
43217;BME280;71549;42.686;23.300;2023-10-13T05:45:08;95283.81;;;24.74;30.92
43217;BME280;71549;42.686;23.300;2023-10-13T05:47:18;95265.56;;;24.71;30.78
43217;BME280;71549;42.686;23.300;2023-10-13T05:49:36;95269.16;;;24.75;30.90
43217;BME280;71549;42.686;23.300;2023-10-13T05:51:50;95278.69;;;24.84;30.73
43217;BME280;71549;42.686;23.300;2023-10-13T05:54:09;95294.81;;;24.93;30.75
43217;BME280;71549;42.686;23.300;2023-10-13T05:56:15;95293.31;;;24.96;30.55
43217;BME280;71549;42.686;23.300;2023-10-13T05:58:34;95287.56;;;24.97;30.64
43217;BME280;71549;42.686;23.300;2023-10-13T06:00:53;95280.81;;;24.91;30.64
43217;BME280;71549;42.686;23.300;2023-10-13T06:03:12;95275.19;;;24.84;30.55
43217;BME280;71549;42.686;23.300;2023-10-13T06:05:31;95204.69;;;24.36;30.37
43217;BME280;71549;42.686;23.300;2023-10-13T06:07:51;95309.66;;;24.99;30.62
43217;BME280;71549;42.686;23.300;2023-10-13T06:10:09;95251.16;;;24.66;30.49
43217;BME280;71549;42.686;23.300;2023-10-13T06:12:28;95314.75;;;25.01;30.40
43217;BME280;71549;42.686;23.300;2023-10-13T06:14:47;95264.63;;;24.79;30.56
43217;BME280;71549;42.686;23.300;2023-10-13T06:17:06;95284.66;;;24.90;30.62
43217;BME280;71549;42.686;23.300;2023-10-13T06:19:25;95307.06;;;25.03;30.60
43217;BME280;71549;42.686;23.300;2023-10-13T06:21:44;95281.06;;;24.86;30.58
43217;BME280;71549;42.686;23.300;2023-10-13T06:24:04;95314.81;;;25.04;30.60
43217;BME280;71549;42.686;23.300;2023-10-13T06:26:23;95308.88;;;24.99;30.60
43217;BME280;71549;42.686;23.300;2023-10-13T06:28:42;95216.38;;;24.40;30.38
43217;BME280;71549;42.686;23.300;2023-10-13T06:30:42;95325.66;;;25.04;30.84
43217;BME280;71549;42.686;23.300;2023-10-13T06:32:47;95306.19;;;24.99;30.63
43217;BME280;71549;42.686;23.300;2023-10-13T06:34:48;95290.41;;;24.89;30.83
43217;BME280;71549;42.686;23.300;2023-10-13T06:36:51;95257.44;;;24.71;30.79
43217;BME280;71549;42.686;23.300;2023-10-13T06:38:54;95323.94;;;25.12;30.56
43217;BME280;71549;42.686;23.300;2023-10-13T06:41:17;95259.78;;;24.72;30.60
43217;BME280;71549;42.686;23.300;2023-10-13T06:43:31;95318.34;;;25.05;30.48
43217;BME280;71549;42.686;23.300;2023-10-13T06:45:32;95223.91;;;24.47;30.84
43217;BME280;71549;42.686;23.300;2023-10-13T06:47:36;95320.88;;;25.14;30.73
43217;BME280;71549;42.686;23.300;2023-10-13T06:49:45;95331.38;;;25.15;30.73
43217;BME280;71549;42.686;23.300;2023-10-13T06:51:46;95328.66;;;25.15;30.68
43217;BME280;71549;42.686;23.300;2023-10-13T06:53:47;95324.47;;;25.18;30.72
43217;BME280;71549;42.686;23.300;2023-10-13T06:55:48;95318.72;;;25.19;30.58
43217;BME280;71549;42.686;23.300;2023-10-13T06:57:55;95278.88;;;24.92;31.09
43217;BME280;71549;42.686;23.300;2023-10-13T07:00:00;95303.84;;;25.13;30.91
43217;BME280;71549;42.686;23.300;2023-10-13T07:02:08;95307.53;;;25.21;30.75
43217;BME280;71549;42.686;23.300;2023-10-13T07:04:21;95305.63;;;25.21;30.88
43217;BME280;71549;42.686;23.300;2023-10-13T07:06:22;95286.34;;;25.11;30.81
43217;BME280;71549;42.686;23.300;2023-10-13T07:08:23;95289.59;;;25.16;30.70
43217;BME280;71549;42.686;23.300;2023-10-13T07:10:24;95294.09;;;25.24;30.99
43217;BME280;71549;42.686;23.300;2023-10-13T07:12:31;95261.78;;;25.03;30.94
43217;BME280;71549;42.686;23.300;2023-10-13T07:14:33;95294.53;;;25.26;30.96
43217;BME280;71549;42.686;23.300;2023-10-13T07:16:34;95295.69;;;25.25;30.92
43217;BME280;71549;42.686;23.300;2023-10-13T07:18:35;95209.66;;;24.62;31.02
43217;BME280;71549;42.686;23.300;2023-10-13T07:20:37;95315.16;;;25.31;31.02
43217;BME280;71549;42.686;23.300;2023-10-13T07:22:43;95248.22;;;24.88;31.14
43217;BME280;71549;42.686;23.300;2023-10-13T07:25:20;95266.44;;;25.03;31.00
43217;BME280;71549;42.686;23.300;2023-10-13T07:27:24;95280.91;;;25.11;31.03
43217;BME280;71549;42.686;23.300;2023-10-13T07:29:25;95305.56;;;25.34;31.10
43217;BME280;71549;42.686;23.300;2023-10-13T07:31:25;95279.91;;;25.15;31.07
43217;BME280;71549;42.686;23.300;2023-10-13T07:33:27;95311.03;;;25.37;30.96
43217;BME280;71549;42.686;23.300;2023-10-13T07:35:28;95289.44;;;25.25;31.27
43217;BME280;71549;42.686;23.300;2023-10-13T07:37:31;95302.56;;;25.39;30.93
43217;BME280;71549;42.686;23.300;2023-10-13T07:39:33;95296.72;;;25.37;30.96
43217;BME280;71549;42.686;23.300;2023-10-13T07:41:39;95297.94;;;25.39;31.21
43217;BME280;71549;42.686;23.300;2023-10-13T07:43:42;95296.81;;;25.40;31.14
43217;BME280;71549;42.686;23.300;2023-10-13T07:45:43;95299.53;;;25.40;31.19
43217;BME280;71549;42.686;23.300;2023-10-13T07:47:44;95290.50;;;25.36;31.33
43217;BME280;71549;42.686;23.300;2023-10-13T07:49:45;95293.31;;;25.40;31.17
43217;BME280;71549;42.686;23.300;2023-10-13T07:51:46;95275.22;;;25.28;31.22
43217;BME280;71549;42.686;23.300;2023-10-13T07:53:49;95297.16;;;25.39;31.10
43217;BME280;71549;42.686;23.300;2023-10-13T07:55:52;95297.16;;;25.39;30.77
43217;BME280;71549;42.686;23.300;2023-10-13T07:57:55;95267.22;;;25.19;30.96
43217;BME280;71549;42.686;23.300;2023-10-13T07:59:59;95271.97;;;25.22;30.96
43217;BME280;71549;42.686;23.300;2023-10-13T08:02:25;95279.47;;;25.29;31.07
43217;BME280;71549;42.686;23.300;2023-10-13T08:04:44;95287.09;;;25.39;30.99
43217;BME280;71549;42.686;23.300;2023-10-13T08:06:45;95260.53;;;25.29;31.25
43217;BME280;71549;42.686;23.300;2023-10-13T08:08:46;95276.00;;;25.44;31.16
43217;BME280;71549;42.686;23.300;2023-10-13T08:10:50;95265.41;;;25.39;31.37
43217;BME280;71549;42.686;23.300;2023-10-13T08:12:55;95281.53;;;25.48;31.39
43217;BME280;71549;42.686;23.300;2023-10-13T08:14:58;95258.25;;;25.31;31.46
43217;BME280;71549;42.686;23.300;2023-10-13T08:17:13;95269.19;;;25.35;31.53
43217;BME280;71549;42.686;23.300;2023-10-13T08:19:21;95269.63;;;25.37;31.66
43217;BME280;71549;42.686;23.300;2023-10-13T08:21:32;95283.94;;;25.53;31.64
43217;BME280;71549;42.686;23.300;2023-10-13T08:23:34;95292.88;;;25.54;31.52
43217;BME280;71549;42.686;23.300;2023-10-13T08:25:54;95269.63;;;25.37;31.44
43217;BME280;71549;42.686;23.300;2023-10-13T08:28:13;95287.97;;;25.43;31.48
43217;BME280;71549;42.686;23.300;2023-10-13T08:30:33;95237.50;;;25.07;31.52
43217;BME280;71549;42.686;23.300;2023-10-13T08:32:42;95218.44;;;24.88;31.46
43217;BME280;71549;42.686;23.300;2023-10-13T08:34:55;95297.84;;;25.52;31.67
43217;BME280;71549;42.686;23.300;2023-10-13T08:36:59;95286.66;;;25.53;31.53
43217;BME280;71549;42.686;23.300;2023-10-13T08:39:00;95230.56;;;25.22;31.42
43217;BME280;71549;42.686;23.300;2023-10-13T08:41:21;95262.13;;;25.46;31.23
43217;BME280;71549;42.686;23.300;2023-10-13T08:43:27;95285.69;;;25.61;31.29
43217;BME280;71549;42.686;23.300;2023-10-13T08:45:41;95255.44;;;25.43;31.26
43217;BME280;71549;42.686;23.300;2023-10-13T08:47:44;95271.28;;;25.57;31.29
43217;BME280;71549;42.686;23.300;2023-10-13T08:49:53;95275.19;;;25.60;31.20
43217;BME280;71549;42.686;23.300;2023-10-13T08:52:11;95273.44;;;25.52;31.52
43217;BME280;71549;42.686;23.300;2023-10-13T08:54:35;95286.84;;;25.60;31.24
43217;BME280;71549;42.686;23.300;2023-10-13T08:56:47;95270.41;;;25.53;31.33
43217;BME280;71549;42.686;23.300;2023-10-13T08:58:56;95240.59;;;25.37;31.34
43217;BME280;71549;42.686;23.300;2023-10-13T09:00:57;95281.59;;;25.67;31.39
43217;BME280;71549;42.686;23.300;2023-10-13T09:03:12;95279.31;;;25.70;31.58
43217;BME280;71549;42.686;23.300;2023-10-13T09:05:39;95280.47;;;25.69;31.28
43217;BME280;71549;42.686;23.300;2023-10-13T09:07:45;95268.47;;;25.70;31.34
43217;BME280;71549;42.686;23.300;2023-10-13T09:09:49;95272.38;;;25.72;31.32
43217;BME280;71549;42.686;23.300;2023-10-13T09:11:54;95246.72;;;25.50;31.34
43217;BME280;71549;42.686;23.300;2023-10-13T09:14:14;95267.59;;;25.65;31.33
43217;BME280;71549;42.686;23.300;2023-10-13T09:16:33;95237.78;;;25.50;31.30
43217;BME280;71549;42.686;23.300;2023-10-13T09:18:39;95233.34;;;25.41;31.33
43217;BME280;71549;42.686;23.300;2023-10-13T09:20:59;95277.81;;;25.72;31.53
43217;BME280;71549;42.686;23.300;2023-10-13T09:23:20;95233.09;;;25.46;31.42
43217;BME280;71549;42.686;23.300;2023-10-13T09:25:28;95223.31;;;25.42;31.39
43217;BME280;71549;42.686;23.300;2023-10-13T09:27:34;95263.56;;;25.75;31.45
43217;BME280;71549;42.686;23.300;2023-10-13T09:29:37;95249.13;;;25.71;31.55
43217;BME280;71549;42.686;23.300;2023-10-13T09:31:39;95254.03;;;25.81;31.68
43217;BME280;71549;42.686;23.300;2023-10-13T09:33:46;95259.88;;;25.83;31.54
43217;BME280;71549;42.686;23.300;2023-10-13T09:35:50;95259.88;;;25.83;31.70
43217;BME280;71549;42.686;23.300;2023-10-13T09:37:52;95213.91;;;25.55;31.79
43217;BME280;71549;42.686;23.300;2023-10-13T09:39:57;95221.84;;;25.64;31.56
43217;BME280;71549;42.686;23.300;2023-10-13T09:42:05;95240.38;;;25.78;31.63
43217;BME280;71549;42.686;23.300;2023-10-13T09:44:10;95186.13;;;25.42;31.50
43217;BME280;71549;42.686;23.300;2023-10-13T09:46:15;95181.59;;;25.46;31.64
43217;BME280;71549;42.686;23.300;2023-10-13T09:48:21;95226.38;;;25.76;31.58
43217;BME280;71549;42.686;23.300;2023-10-13T09:50:28;95237.66;;;25.78;31.68
43217;BME280;71549;42.686;23.300;2023-10-13T09:52:34;95214.59;;;25.68;31.86
43217;BME280;71549;42.686;23.300;2023-10-13T09:54:38;95243.25;;;25.85;31.67
43217;BME280;71549;42.686;23.300;2023-10-13T09:56:50;95233.97;;;25.86;31.76
43217;BME280;71549;42.686;23.300;2023-10-13T09:59:10;95184.81;;;25.52;31.69
43217;BME280;71549;42.686;23.300;2023-10-13T10:01:19;95230.47;;;25.85;31.59
43217;BME280;71549;42.686;23.300;2023-10-13T10:03:31;95225.06;;;25.85;31.76
43217;BME280;71549;42.686;23.300;2023-10-13T10:05:34;95207.06;;;25.77;31.69
43217;BME280;71549;42.686;23.300;2023-10-13T10:07:35;95209.03;;;25.80;31.82
43217;BME280;71549;42.686;23.300;2023-10-13T10:09:36;95211.59;;;25.89;31.39
43217;BME280;71549;42.686;23.300;2023-10-13T10:17:04;95208.94;;;25.93;31.55
43217;BME280;71549;42.686;23.300;2023-10-13T10:19:08;95209.75;;;25.93;31.42
43217;BME280;71549;42.686;23.300;2023-10-13T10:21:09;95203.53;;;25.93;31.44
43217;BME280;71549;42.686;23.300;2023-10-13T10:23:23;95182.75;;;25.81;31.25
43217;BME280;71549;42.686;23.300;2023-10-13T10:25:33;95199.25;;;25.92;31.40
43217;BME280;71549;42.686;23.300;2023-10-13T10:27:37;95199.34;;;25.95;31.35
43217;BME280;71549;42.686;23.300;2023-10-13T10:29:38;95196.63;;;25.95;31.30
43217;BME280;71549;42.686;23.300;2023-10-13T10:31:38;95137.25;;;25.55;31.45
43217;BME280;71549;42.686;23.300;2023-10-13T10:33:44;95194.69;;;25.96;31.48
43217;BME280;71549;42.686;23.300;2023-10-13T10:35:48;95182.44;;;25.86;31.33
43217;BME280;71549;42.686;23.300;2023-10-13T10:38:12;95193.19;;;25.98;31.49
43217;BME280;71549;42.686;23.300;2023-10-13T10:40:23;95192.00;;;25.96;31.48
43217;BME280;71549;42.686;23.300;2023-10-13T10:42:51;95198.28;;;26.00;31.46
43217;BME280;71549;42.686;23.300;2023-10-13T10:44:52;95190.13;;;26.00;31.53
43217;BME280;71549;42.686;23.300;2023-10-13T10:46:56;95184.72;;;26.00;31.39
43217;BME280;71549;42.686;23.300;2023-10-13T10:49:04;95190.91;;;26.00;31.37
43217;BME280;71549;42.686;23.300;2023-10-13T10:51:05;95057.25;;;25.10;31.37
43217;BME280;71549;42.686;23.300;2023-10-13T10:53:24;95181.66;;;26.01;31.62
43217;BME280;71549;42.686;23.300;2023-10-13T10:55:48;95187.06;;;26.01;31.23
43217;BME280;71549;42.686;23.300;2023-10-13T10:57:58;95079.38;;;25.28;31.62
43217;BME280;71549;42.686;23.300;2023-10-13T10:59:59;95095.41;;;25.36;31.58
43217;BME280;71549;42.686;23.300;2023-10-13T11:02:11;95138.31;;;25.70;31.52
43217;BME280;71549;42.686;23.300;2023-10-13T11:04:27;95174.56;;;25.97;31.27
43217;BME280;71549;42.686;23.300;2023-10-13T11:06:37;95183.97;;;26.03;31.42
43217;BME280;71549;42.686;23.300;2023-10-13T11:08:42;95135.28;;;25.71;31.50
43217;BME280;71549;42.686;23.300;2023-10-13T11:10:47;95137.34;;;25.78;31.42
43217;BME280;71549;42.686;23.300;2023-10-13T11:12:54;95119.34;;;25.70;31.40
43217;BME280;71549;42.686;23.300;2023-10-13T11:15:05;95171.66;;;26.05;31.50
43217;BME280;71549;42.686;23.300;2023-10-13T11:17:33;95158.78;;;26.02;31.41